Time;durP1;ratioP1;P1;durP2;ratioP2;P2;SDS_P1;SDS_P2;PMS_P1;PMS_P2;Temp;Humidity;BMP_temperature;BMP_pressure;BME280_temperature;BME280_humidity;BME280_pressure;Samples;Min_cycle;Max_cycle;Signal;HPM_P1;HPM_P2
2021/09/22 00:00:28;;;;;;;5.20;3.78;;;7.80;89.70;;;;;;4944390;28;20027;-68
2021/09/22 00:02:53;;;;;;;5.20;3.45;;;7.80;87.70;;;;;;4948903;29;20015;-68
2021/09/22 00:05:19;;;;;;;8.77;4.65;;;7.70;88.10;;;;;;4948656;28;20073;-68
2021/09/22 00:07:45;;;;;;;6.07;3.58;;;7.70;88.60;;;;;;4944364;28;20348;-68
2021/09/22 00:10:14;;;;;;;2.40;2.10;;;7.60;88.80;;;;;;4942661;28;20032;-68
2021/09/22 00:12:40;;;;;;;2.92;2.55;;;7.60;89.00;;;;;;4951174;28;20580;-67
2021/09/22 00:15:09;;;;;;;3.83;2.97;;;7.50;88.60;;;;;;4944252;28;20473;-67
2021/09/22 00:17:34;;;;;;;10.55;6.40;;;7.50;89.60;;;;;;4949294;28;20023;-68
2021/09/22 00:20:01;;;;;;;8.20;5.45;;;7.40;90.10;;;;;;4948852;28;20031;-68
2021/09/22 00:22:27;;;;;;;8.20;5.07;;;7.40;90.40;;;;;;4948634;28;20040;-68
2021/09/22 00:24:53;;;;;;;8.65;5.32;;;7.40;90.80;;;;;;4944138;28;20114;-68
2021/09/22 00:27:19;;;;;;;7.63;4.75;;;7.40;90.70;;;;;;4944981;28;20043;-68
2021/09/22 00:29:46;;;;;;;4.97;3.42;;;7.40;90.20;;;;;;4943776;28;20055;-67
2021/09/22 00:32:11;;;;;;;7.82;4.85;;;7.40;88.70;;;;;;4944468;28;20557;-67
2021/09/22 00:34:37;;;;;;;6.55;4.75;;;7.40;89.10;;;;;;4947711;29;20122;-67
2021/09/22 00:37:06;;;;;;;5.25;3.58;;;7.30;89.50;;;;;;4944404;28;20031;-68
2021/09/22 00:39:34;;;;;;;2.22;2.05;;;7.20;89.00;;;;;;4937221;28;20476;-68
2021/09/22 00:42:04;;;;;;;1.70;1.60;;;7.20;89.10;;;;;;4946780;28;20027;-67
2021/09/22 00:44:30;;;;;;;2.30;2.10;;;7.20;89.10;;;;;;4939805;28;20484;-67
2021/09/22 00:46:56;;;;;;;1.80;1.70;;;7.20;89.40;;;;;;4945078;28;20019;-68
2021/09/22 00:49:22;;;;;;;5.32;3.15;;;7.20;89.30;;;;;;4957756;28;20102;-67
2021/09/22 00:51:48;;;;;;;6.55;4.60;;;7.20;89.20;;;;;;4946604;28;20049;-68
2021/09/22 00:54:14;;;;;;;8.00;4.50;;;7.20;89.90;;;;;;4944780;28;20031;-68
2021/09/22 00:56:39;;;;;;;7.35;4.40;;;7.20;90.20;;;;;;4948200;28;20031;-68
2021/09/22 00:59:05;;;;;;;8.65;4.47;;;7.20;90.70;;;;;;4947127;28;20528;-67
2021/09/22 01:01:32;;;;;;;6.25;4.20;;;7.10;90.30;;;;;;4943074;28;20046;-69
2021/09/22 01:04:00;;;;;;;7.72;5.20;;;7.10;90.30;;;;;;4946841;28;20027;-68
2021/09/22 01:06:26;;;;;;;6.32;4.30;;;7.10;90.30;;;;;;4945994;28;20031;-68
2021/09/22 01:08:52;;;;;;;7.45;4.32;;;7.10;90.30;;;;;;4948829;29;20035;-67
2021/09/22 01:11:19;;;;;;;7.47;4.40;;;7.10;90.50;;;;;;4942393;28;20414;-67
2021/09/22 01:13:45;;;;;;;5.03;3.72;;;7.10;90.30;;;;;;4955234;28;20253;-67
2021/09/22 01:16:11;;;;;;;4.70;3.25;;;7.00;90.20;;;;;;4963742;28;20032;-68
2021/09/22 01:18:37;;;;;;;5.93;4.35;;;7.10;90.10;;;;;;4963208;28;20163;-68
2021/09/22 01:21:03;;;;;;;7.03;4.07;;;7.10;90.40;;;;;;4944230;28;20490;-67
2021/09/22 01:23:29;;;;;;;5.05;3.50;;;7.10;90.20;;;;;;4945871;28;20043;-68
2021/09/22 01:25:56;;;;;;;4.15;3.67;;;7.10;90.10;;;;;;4947350;28;20055;-68
2021/09/22 01:28:24;;;;;;;5.45;3.80;;;7.10;90.00;;;;;;4961848;28;20706;-67
2021/09/22 01:30:50;;;;;;;7.32;4.28;;;7.00;90.30;;;;;;4957428;28;20367;-68
2021/09/22 01:33:18;;;;;;;5.75;3.70;;;7.00;90.40;;;;;;4948859;28;20030;-67
2021/09/22 01:35:46;;;;;;;6.85;3.80;;;7.10;90.30;;;;;;4940436;28;20059;-68
2021/09/22 01:38:15;;;;;;;7.90;3.55;;;7.10;90.30;;;;;;4944732;28;20089;-67
2021/09/22 01:40:52;;;;;;;5.65;4.30;;;7.10;90.30;;;;;;4945183;28;20519;-68
2021/09/22 01:43:17;;;;;;;8.27;3.72;;;7.00;90.40;;;;;;4947613;28;20035;-68
2021/09/22 01:45:43;;;;;;;5.50;3.50;;;7.00;90.50;;;;;;4958767;28;20101;-67
2021/09/22 01:48:09;;;;;;;3.97;2.70;;;7.00;90.50;;;;;;4943882;28;20118;-68
2021/09/22 01:50:34;;;;;;;3.50;3.20;;;7.00;90.00;;;;;;4946252;28;20075;-68
2021/09/22 01:53:00;;;;;;;6.78;3.78;;;6.90;89.90;;;;;;4945977;28;20057;-68
2021/09/22 01:55:26;;;;;;;4.13;3.05;;;6.90;90.00;;;;;;4941681;28;20074;-67
2021/09/22 01:57:52;;;;;;;3.97;3.22;;;6.90;90.00;;;;;;4962208;28;20491;-68
2021/09/22 02:00:18;;;;;;;6.60;4.03;;;6.90;90.10;;;;;;4945842;28;20381;-68
2021/09/22 02:02:43;;;;;;;6.90;4.30;;;6.90;90.60;;;;;;4940972;28;20071;-67
2021/09/22 02:05:09;;;;;;;6.75;4.32;;;6.70;91.20;;;;;;4938881;28;20074;-67
2021/09/22 02:07:35;;;;;;;6.60;4.18;;;6.70;91.50;;;;;;4944039;28;20050;-68
2021/09/22 02:10:02;;;;;;;6.38;4.18;;;6.70;91.50;;;;;;4963883;28;20031;-67
2021/09/22 02:12:29;;;;;;;5.97;3.53;;;6.80;91.60;;;;;;4957071;28;20113;-67
2021/09/22 02:14:56;;;;;;;5.78;3.72;;;6.80;91.50;;;;;;4942367;28;20576;-68
2021/09/22 02:17:22;;;;;;;5.82;4.22;;;6.80;91.50;;;;;;4946774;28;20035;-68
2021/09/22 02:19:48;;;;;;;6.88;4.32;;;6.80;91.50;;;;;;4948784;28;20454;-67
2021/09/22 02:22:14;;;;;;;5.93;4.15;;;6.90;91.30;;;;;;4939929;28;20476;-68
2021/09/22 02:24:43;;;;;;;4.95;3.67;;;6.80;91.20;;;;;;4950330;28;20098;-68
2021/09/22 02:27:14;;;;;;;5.00;3.33;;;6.80;91.10;;;;;;4945924;28;20123;-68
2021/09/22 02:29:40;;;;;;;4.38;3.05;;;6.80;90.90;;;;;;4955280;28;20035;-68
2021/09/22 02:32:06;;;;;;;4.30;3.13;;;6.70;90.70;;;;;;4943255;28;20035;-67
2021/09/22 02:34:32;;;;;;;4.88;3.33;;;6.70;90.80;;;;;;4943646;28;20150;-68
2021/09/22 02:36:58;;;;;;;5.05;3.47;;;6.70;90.70;;;;;;4947111;28;20110;-67
2021/09/22 02:39:23;;;;;;;4.97;3.95;;;6.70;90.50;;;;;;4943720;28;20039;-68
2021/09/22 02:41:49;;;;;;;4.78;3.22;;;6.70;90.50;;;;;;4940626;28;20036;-67
2021/09/22 02:44:16;;;;;;;5.70;3.85;;;6.70;90.50;;;;;;4948386;28;20109;-68
2021/09/22 02:46:41;;;;;;;9.18;4.63;;;6.70;90.70;;;;;;4943413;28;20028;-67
2021/09/22 02:49:08;;;;;;;6.57;4.13;;;6.70;90.80;;;;;;4953778;28;20037;-67
2021/09/22 02:51:33;;;;;;;6.88;3.75;;;6.70;90.90;;;;;;4962636;28;20027;-68
2021/09/22 02:53:59;;;;;;;6.22;4.13;;;6.60;91.20;;;;;;4944336;28;20031;-68
2021/09/22 02:56:25;;;;;;;6.75;4.32;;;6.60;91.30;;;;;;4936857;28;20047;-71
2021/09/22 02:58:50;;;;;;;5.57;4.18;;;6.60;91.60;;;;;;4944824;28;20042;-67
2021/09/22 03:01:16;;;;;;;6.60;4.30;;;6.60;91.70;;;;;;4945213;28;20043;-68
2021/09/22 03:03:42;;;;;;;4.80;3.92;;;6.60;91.70;;;;;;4935308;28;20035;-68
2021/09/22 03:06:09;;;;;;;4.85;4.00;;;6.60;91.50;;;;;;4939887;28;20046;-68
2021/09/22 03:08:34;;;;;;;2.83;2.63;;;6.60;91.10;;;;;;4944477;28;20487;-68
2021/09/22 03:11:05;;;;;;;2.55;2.35;;;6.50;90.90;;;;;;4937155;28;20110;-67
2021/09/22 03:13:31;;;;;;;2.53;2.30;;;6.40;90.80;;;;;;4941897;28;20067;-67
2021/09/22 03:15:57;;;;;;;3.55;2.92;;;6.40;91.00;;;;;;4963380;28;20066;-70
2021/09/22 03:18:23;;;;;;;3.85;3.10;;;6.40;91.20;;;;;;4943446;28;20627;-68
2021/09/22 03:20:48;;;;;;;4.13;3.40;;;6.40;91.30;;;;;;4941869;28;20035;-70
2021/09/22 03:23:14;;;;;;;5.05;3.45;;;6.40;91.30;;;;;;4946810;28;20023;-68
2021/09/22 03:25:40;;;;;;;4.93;4.07;;;6.40;91.30;;;;;;4953312;28;20520;-67
2021/09/22 03:28:06;;;;;;;7.00;4.20;;;6.40;91.20;;;;;;4942125;28;20030;-67
2021/09/22 03:30:32;;;;;;;6.53;4.13;;;6.40;91.60;;;;;;4945439;28;20385;-68
2021/09/22 03:32:58;;;;;;;6.00;4.15;;;6.50;91.50;;;;;;4943203;28;20038;-67
2021/09/22 03:35:23;;;;;;;8.90;4.55;;;6.50;91.50;;;;;;4942832;28;20027;-67
2021/09/22 03:37:49;;;;;;;4.88;3.55;;;6.50;91.30;;;;;;4950969;29;20039;-70
2021/09/22 03:40:15;;;;;;;8.23;4.88;;;6.50;91.10;;;;;;4949277;28;20082;-68
2021/09/22 03:42:41;;;;;;;6.80;4.40;;;6.50;91.40;;;;;;4945477;28;20408;-68
2021/09/22 03:45:07;;;;;;;6.85;4.30;;;6.40;91.70;;;;;;4941393;28;20027;-68
2021/09/22 03:47:33;;;;;;;7.97;4.45;;;6.40;92.50;;;;;;4945085;28;20114;-68
2021/09/22 03:49:58;;;;;;;6.45;4.38;;;6.40;92.10;;;;;;4948574;28;20580;-68
2021/09/22 03:52:24;;;;;;;7.90;4.47;;;6.50;91.90;;;;;;4949375;28;20362;-68
2021/09/22 03:54:50;;;;;;;7.40;4.57;;;6.40;91.90;;;;;;4947183;28;20058;-68
2021/09/22 03:57:16;;;;;;;8.90;4.53;;;6.40;91.80;;;;;;4948420;28;20039;-68
2021/09/22 03:59:42;;;;;;;7.57;5.10;;;6.40;92.10;;;;;;4959718;28;20038;-68
2021/09/22 04:02:08;;;;;;;7.38;4.35;;;6.40;92.10;;;;;;4942661;28;20070;-67
2021/09/22 04:04:33;;;;;;;4.78;3.78;;;6.30;92.00;;;;;;4940353;28;20511;-68
2021/09/22 04:06:59;;;;;;;7.22;4.82;;;6.30;91.90;;;;;;4939650;28;20032;-68
2021/09/22 04:09:25;;;;;;;6.45;4.30;;;6.30;91.80;;;;;;4939690;28;20122;-67
2021/09/22 04:11:51;;;;;;;23.40;4.00;;;6.30;91.60;;;;;;4945395;29;20023;-67
2021/09/22 04:14:17;;;;;;;6.15;4.07;;;6.30;91.40;;;;;;4945006;28;20110;-68
2021/09/22 04:16:42;;;;;;;6.43;4.15;;;6.30;91.30;;;;;;4948875;28;20428;-68
2021/09/22 04:19:08;;;;;;;5.85;4.00;;;6.20;91.30;;;;;;4949642;28;20175;-68
2021/09/22 04:21:34;;;;;;;5.35;4.25;;;6.20;91.60;;;;;;4961816;28;20035;-68
2021/09/22 04:23:59;;;;;;;4.35;3.88;;;6.10;91.90;;;;;;4949460;28;20424;-68
2021/09/22 04:26:26;;;;;;;5.55;4.10;;;6.10;91.90;;;;;;4939090;28;20146;-67
2021/09/22 04:28:51;;;;;;;6.75;4.80;;;6.10;92.10;;;;;;4948152;28;20071;-67
2021/09/22 04:31:17;;;;;;;6.72;4.05;;;6.10;92.10;;;;;;4943223;28;20063;-67
2021/09/22 04:33:43;;;;;;;6.75;4.22;;;6.10;92.10;;;;;;4945481;28;20036;-67
2021/09/22 04:36:08;;;;;;;7.93;4.15;;;6.10;92.20;;;;;;4944390;28;20056;-67
2021/09/22 04:38:35;;;;;;;8.88;4.57;;;6.00;92.50;;;;;;4942862;28;20035;-66
2021/09/22 04:41:01;;;;;;;6.97;3.97;;;6.10;92.20;;;;;;4947818;28;20031;-67
2021/09/22 04:43:26;;;;;;;6.40;4.05;;;6.10;92.20;;;;;;4949403;28;20057;-66
2021/09/22 04:45:52;;;;;;;8.10;4.32;;;6.10;92.40;;;;;;4951312;28;20077;-66
2021/09/22 04:48:18;;;;;;;8.90;3.75;;;6.20;92.00;;;;;;4944630;28;20054;-67
2021/09/22 04:50:44;;;;;;;5.22;3.63;;;6.10;91.50;;;;;;4943009;28;20046;-66
2021/09/22 04:53:09;;;;;;;4.55;3.40;;;6.00;91.20;;;;;;4948690;28;20042;-69
2021/09/22 04:55:35;;;;;;;4.75;3.28;;;5.80;91.00;;;;;;4944610;28;20034;-67
2021/09/22 04:58:02;;;;;;;4.10;3.60;;;5.70;90.80;;;;;;4943864;28;20062;-67
2021/09/22 05:00:28;;;;;;;4.15;3.05;;;5.60;91.00;;;;;;4945925;28;20023;-67
2021/09/22 05:02:53;;;;;;;6.13;3.70;;;5.50;91.30;;;;;;4941759;28;20046;-67
2021/09/22 05:05:19;;;;;;;4.28;3.35;;;5.60;91.80;;;;;;4942374;28;20040;-67
2021/09/22 05:07:45;;;;;;;5.53;3.35;;;5.60;91.40;;;;;;4947416;28;20038;-67
2021/09/22 05:10:11;;;;;;;4.38;3.30;;;5.60;91.60;;;;;;4945032;28;20046;-67
2021/09/22 05:12:36;;;;;;;4.18;3.60;;;5.60;92.00;;;;;;4946713;28;20102;-67
2021/09/22 05:15:04;;;;;;;5.70;4.38;;;5.70;91.90;;;;;;4941250;28;20083;-68
2021/09/22 05:17:29;;;;;;;7.47;3.90;;;5.70;91.60;;;;;;4947757;28;20572;-67
2021/09/22 05:19:55;;;;;;;5.45;3.72;;;5.70;91.70;;;;;;4946406;28;20027;-67
2021/09/22 05:22:21;;;;;;;7.85;4.30;;;5.70;91.70;;;;;;4945575;28;20033;-67
2021/09/22 05:24:46;;;;;;;4.55;3.72;;;5.70;91.90;;;;;;4942762;28;20189;-66
2021/09/22 05:27:12;;;;;;;7.15;4.22;;;5.70;91.90;;;;;;4943215;28;20031;-67
2021/09/22 05:29:38;;;;;;;5.85;3.55;;;5.80;91.80;;;;;;4948575;28;20024;-67
2021/09/22 05:32:04;;;;;;;4.93;3.95;;;5.80;91.80;;;;;;4943111;28;20035;-67
2021/09/22 05:34:31;;;;;;;5.32;3.80;;;5.80;91.70;;;;;;4940773;28;20035;-67
2021/09/22 05:36:57;;;;;;;7.63;4.40;;;5.80;92.10;;;;;;4944785;28;20023;-67
2021/09/22 05:39:22;;;;;;;6.65;4.10;;;5.80;91.70;;;;;;4943238;28;20481;-67
2021/09/22 05:41:48;;;;;;;8.98;4.72;;;5.80;91.90;;;;;;4946294;28;20035;-67
2021/09/22 05:44:14;;;;;;;5.32;3.83;;;5.80;92.10;;;;;;4940775;28;20035;-68
2021/09/22 05:46:39;;;;;;;4.65;3.45;;;5.80;92.40;;;;;;4946342;28;20066;-67
2021/09/22 05:49:05;;;;;;;3.78;3.42;;;5.70;92.20;;;;;;4943442;28;20031;-67
2021/09/22 05:51:32;;;;;;;4.05;3.10;;;5.70;92.20;;;;;;4944984;28;20031;-67
2021/09/22 05:53:58;;;;;;;3.03;2.72;;;5.70;92.40;;;;;;4945428;28;20022;-68
2021/09/22 05:56:24;;;;;;;6.63;4.03;;;5.70;92.30;;;;;;4948167;28;20051;-67
2021/09/22 05:58:50;;;;;;;4.88;3.35;;;5.70;92.70;;;;;;4943645;28;20720;-67
2021/09/22 06:01:16;;;;;;;5.90;4.18;;;5.80;92.80;;;;;;4943420;28;20043;-67
2021/09/22 06:03:42;;;;;;;5.88;3.47;;;5.80;93.30;;;;;;4938358;28;20031;-66
2021/09/22 06:06:07;;;;;;;4.90;3.95;;;5.90;93.10;;;;;;4939386;28;20117;-68
2021/09/22 06:08:33;;;;;;;7.28;4.18;;;5.90;93.00;;;;;;4943511;28;20046;-66
2021/09/22 06:10:59;;;;;;;6.72;4.13;;;6.00;93.30;;;;;;4946876;28;20031;-67
2021/09/22 06:13:25;;;;;;;6.53;4.28;;;6.00;93.10;;;;;;4950657;28;20415;-67
2021/09/22 06:15:54;;;;;;;4.78;3.95;;;6.00;93.10;;;;;;4945754;28;20046;-67
2021/09/22 06:18:20;;;;;;;6.72;3.83;;;6.10;93.30;;;;;;4947331;28;20388;-67
2021/09/22 06:20:45;;;;;;;5.72;4.03;;;6.20;93.20;;;;;;4947698;28;20038;-67
2021/09/22 06:23:11;;;;;;;6.32;4.65;;;6.20;93.10;;;;;;4950350;28;20035;-68
2021/09/22 06:25:37;;;;;;;6.88;4.25;;;6.20;93.20;;;;;;4944930;28;20484;-67
2021/09/22 06:28:03;;;;;;;6.30;4.28;;;6.30;93.20;;;;;;4944169;28;20062;-67
2021/09/22 06:30:29;;;;;;;6.97;4.80;;;6.30;93.30;;;;;;4947276;28;20094;-68
2021/09/22 06:32:54;;;;;;;6.85;4.40;;;6.40;93.20;;;;;;4947747;28;20039;-67
2021/09/22 06:35:20;;;;;;;6.57;4.93;;;6.40;93.60;;;;;;4948196;28;20038;-67
2021/09/22 06:37:49;;;;;;;9.68;5.30;;;6.50;93.50;;;;;;4948631;28;20031;-67
2021/09/22 06:40:17;;;;;;;11.13;6.55;;;6.60;93.90;;;;;;4948098;28;20051;-67
2021/09/22 06:42:45;;;;;;;10.30;5.72;;;6.60;94.00;;;;;;4950205;28;20031;-67
2021/09/22 06:45:11;;;;;;;10.82;6.18;;;6.70;94.10;;;;;;4946834;28;20073;-67
2021/09/22 06:47:36;;;;;;;9.18;5.70;;;6.70;94.20;;;;;;4943252;28;20034;-66
2021/09/22 06:50:04;;;;;;;15.95;6.95;;;6.80;94.20;;;;;;4946555;28;20392;-67
2021/09/22 06:52:30;;;;;;;10.23;5.85;;;6.90;94.50;;;;;;4950265;28;20121;-67
2021/09/22 06:54:57;;;;;;;10.43;5.93;;;6.90;94.50;;;;;;4948534;28;20538;-66
2021/09/22 06:57:23;;;;;;;13.52;7.18;;;7.00;94.70;;;;;;4951935;28;20040;-67
2021/09/22 06:59:49;;;;;;;13.18;6.00;;;7.00;94.90;;;;;;4966829;28;20049;-67
2021/09/22 07:02:15;;;;;;;10.18;5.35;;;7.10;95.30;;;;;;4949832;28;20075;-67
2021/09/22 07:04:42;;;;;;;11.48;5.97;;;7.10;95.10;;;;;;4951597;28;20035;-68
2021/09/22 07:07:07;;;;;;;9.70;6.13;;;7.20;95.10;;;;;;4949216;28;20038;-67
2021/09/22 07:09:33;;;;;;;11.65;6.63;;;7.20;95.40;;;;;;4949554;28;20409;-68
2021/09/22 07:11:59;;;;;;;10.90;6.38;;;7.30;95.50;;;;;;4952902;28;20027;-67
2021/09/22 07:14:25;;;;;;;11.63;6.15;;;7.30;95.20;;;;;;4950545;28;20047;-67
2021/09/22 07:16:50;;;;;;;12.05;6.90;;;7.40;95.40;;;;;;4956348;28;20031;-67
2021/09/22 07:19:16;;;;;;;11.40;6.00;;;7.40;95.70;;;;;;4970273;28;20026;-68
2021/09/22 07:21:42;;;;;;;14.88;7.15;;;7.50;95.60;;;;;;4950200;28;20031;-67
2021/09/22 07:24:08;;;;;;;13.85;7.55;;;7.60;96.10;;;;;;4961735;28;20107;-67
2021/09/22 07:26:34;;;;;;;11.25;6.28;;;7.70;96.00;;;;;;4947490;28;20038;-68
2021/09/22 07:28:59;;;;;;;12.43;8.07;;;7.70;95.90;;;;;;4952559;28;20062;-67
2021/09/22 07:31:26;;;;;;;13.35;7.53;;;7.80;96.40;;;;;;4950704;28;20504;-67
2021/09/22 07:33:52;;;;;;;14.07;7.78;;;7.80;95.90;;;;;;4949214;28;20024;-67
2021/09/22 07:36:17;;;;;;;13.55;7.40;;;7.90;95.80;;;;;;4957662;28;20030;-68
2021/09/22 07:38:43;;;;;;;14.15;8.30;;;8.00;96.00;;;;;;4951767;28;20404;-68
2021/09/22 07:41:09;;;;;;;15.25;8.10;;;8.10;96.00;;;;;;4947794;28;20054;-68
2021/09/22 07:43:35;;;;;;;12.55;7.40;;;8.20;96.30;;;;;;4965230;28;20114;-68
2021/09/22 07:46:01;;;;;;;20.77;8.75;;;8.30;95.70;;;;;;4951238;28;20027;-67
2021/09/22 07:48:27;;;;;;;16.27;8.35;;;8.30;95.10;;;;;;4966146;28;20078;-67
2021/09/22 07:50:53;;;;;;;18.77;9.27;;;8.40;95.30;;;;;;4966076;28;20404;-67
2021/09/22 07:53:19;;;;;;;15.88;8.80;;;8.60;96.00;;;;;;4947163;28;20034;-68
2021/09/22 07:55:45;;;;;;;15.82;8.35;;;8.60;96.10;;;;;;4948559;28;20110;-67
2021/09/22 07:58:11;;;;;;;25.10;9.95;;;8.80;95.60;;;;;;4949640;28;20049;-66
2021/09/22 08:00:37;;;;;;;15.18;8.20;;;8.90;94.70;;;;;;4949545;28;20383;-66
2021/09/22 08:03:02;;;;;;;15.23;8.85;;;9.00;94.60;;;;;;4945003;28;20075;-68
2021/09/22 08:05:30;;;;;;;17.73;8.52;;;9.20;95.00;;;;;;4947994;28;20034;-67
2021/09/22 08:07:56;;;;;;;14.93;9.23;;;9.30;94.20;;;;;;4948168;28;20504;-67
2021/09/22 08:10:22;;;;;;;16.17;8.27;;;9.50;93.20;;;;;;4963768;28;20062;-67
2021/09/22 08:12:49;;;;;;;16.20;8.60;;;9.60;92.60;;;;;;4962212;28;20063;-67
2021/09/22 08:15:16;;;;;;;14.88;8.65;;;9.70;92.70;;;;;;4948093;28;20031;-67
2021/09/22 08:17:42;;;;;;;15.40;8.27;;;9.90;92.80;;;;;;4950358;28;20058;-68
2021/09/22 08:20:09;;;;;;;13.73;7.82;;;10.00;92.70;;;;;;4947276;28;20027;-68
2021/09/22 08:22:35;;;;;;;14.43;8.10;;;10.10;92.50;;;;;;4951011;28;20441;-67
2021/09/22 08:25:02;;;;;;;16.55;8.43;;;10.30;93.30;;;;;;4946554;28;20054;-67
2021/09/22 08:27:28;;;;;;;12.27;7.43;;;10.50;93.10;;;;;;4951992;28;20031;-67
2021/09/22 08:29:54;;;;;;;15.75;7.80;;;10.50;92.30;;;;;;4948734;28;20020;-67
2021/09/22 08:32:20;;;;;;;14.07;8.30;;;10.60;91.50;;;;;;4952677;28;20032;-68
2021/09/22 08:34:46;;;;;;;11.68;7.65;;;10.60;91.20;;;;;;4952842;28;20026;-67
2021/09/22 08:37:11;;;;;;;11.88;6.85;;;10.70;91.10;;;;;;4951041;28;20031;-68
2021/09/22 08:39:37;;;;;;;13.88;7.40;;;10.80;91.50;;;;;;4954350;28;20465;-67
2021/09/22 08:42:05;;;;;;;12.60;8.25;;;10.80;91.10;;;;;;4945682;28;20035;-67
2021/09/22 08:44:31;;;;;;;15.38;7.47;;;11.00;91.10;;;;;;4950326;28;20032;-68
2021/09/22 08:46:57;;;;;;;13.73;7.72;;;11.10;90.40;;;;;;4948118;28;20489;-68
2021/09/22 08:49:23;;;;;;;14.15;7.55;;;11.40;90.10;;;;;;4946957;28;20042;-67
2021/09/22 08:51:49;;;;;;;13.23;7.65;;;11.40;89.40;;;;;;4950298;28;20101;-68
2021/09/22 08:54:15;;;;;;;12.75;7.43;;;11.60;89.40;;;;;;4951234;28;20034;-67
2021/09/22 08:56:42;;;;;;;11.15;7.00;;;11.70;88.10;;;;;;4964480;28;20038;-67
2021/09/22 08:59:10;;;;;;;10.57;6.88;;;11.80;87.20;;;;;;4949068;29;20063;-68
2021/09/22 09:01:35;;;;;;;10.55;6.78;;;11.90;85.20;;;;;;4947878;28;20051;-68
2021/09/22 09:04:17;;;;;;;10.30;6.90;;;12.00;85.30;;;;;;4965073;28;20022;-68
2021/09/22 09:06:44;;;;;;;9.20;6.68;;;12.10;84.60;;;;;;4959015;28;20066;-68
2021/09/22 09:09:10;;;;;;;12.30;6.85;;;12.10;85.50;;;;;;4952339;28;20030;-68
2021/09/22 09:11:43;;;;;;;10.32;6.47;;;12.20;84.00;;;;;;4950243;28;20126;-67
2021/09/22 09:14:12;;;;;;;10.98;6.32;;;12.20;82.30;;;;;;4954834;28;20035;-67
2021/09/22 09:16:41;;;;;;;8.75;5.75;;;12.40;79.00;;;;;;4949120;28;20125;-67
2021/09/22 09:19:25;;;;;;;8.88;5.45;;;12.40;80.30;;;;;;4961492;28;20059;-67
2021/09/22 09:21:54;;;;;;;8.13;5.78;;;12.40;79.80;;;;;;4964220;28;20074;-67
2021/09/22 09:24:46;;;;;;;8.55;5.70;;;12.50;79.20;;;;;;4945811;28;20057;-68
2021/09/22 09:27:33;;;;;;;8.68;5.85;;;12.60;80.10;;;;;;4952136;28;20027;-67
2021/09/22 09:30:16;;;;;;;8.38;6.05;;;12.70;76.20;;;;;;4951832;28;20046;-66
2021/09/22 09:32:42;;;;;;;10.32;5.90;;;12.70;78.10;;;;;;4960559;28;20046;-67
2021/09/22 09:35:11;;;;;;;6.57;5.35;;;12.80;79.90;;;;;;4943359;28;20099;-67
2021/09/22 09:37:38;;;;;;;7.93;5.70;;;12.90;78.00;;;;;;4944739;28;20037;-67
2021/09/22 09:40:16;;;;;;;8.75;5.57;;;12.90;77.30;;;;;;4949555;28;20027;-67
2021/09/22 09:42:43;;;;;;;6.22;5.13;;;13.00;76.70;;;;;;4944230;28;20078;-68
2021/09/22 09:45:09;;;;;;;7.68;4.97;;;13.10;77.50;;;;;;4949648;28;20031;-67
2021/09/22 09:47:35;;;;;;;7.43;4.97;;;13.20;77.60;;;;;;4952320;28;20424;-68
2021/09/22 09:50:18;;;;;;;8.60;4.93;;;13.30;77.10;;;;;;4947755;28;20658;-68
2021/09/22 09:52:56;;;;;;;8.27;5.50;;;13.40;75.60;;;;;;4946607;28;20447;-67
2021/09/22 09:55:26;;;;;;;7.72;5.30;;;13.50;77.00;;;;;;4950706;28;20412;-67
2021/09/22 09:57:54;;;;;;;8.20;5.57;;;13.50;75.50;;;;;;4947866;28;20449;-67
2021/09/22 10:00:50;;;;;;;7.63;5.20;;;13.50;76.00;;;;;;4948285;28;20031;-67
2021/09/22 10:03:23;;;;;;;7.50;5.25;;;13.60;76.00;;;;;;4948799;28;20602;-67
2021/09/22 10:05:51;;;;;;;8.85;5.47;;;13.70;74.50;;;;;;4949830;28;20059;-67
2021/09/22 10:08:20;;;;;;;6.72;5.13;;;13.70;74.10;;;;;;4948765;28;20818;-67
2021/09/22 10:10:48;;;;;;;8.15;5.53;;;13.70;74.70;;;;;;4947413;28;20030;-67
2021/09/22 10:13:15;;;;;;;6.63;4.78;;;13.80;76.20;;;;;;4947585;28;22187;-67
2021/09/22 10:15:43;;;;;;;6.95;4.68;;;13.80;75.60;;;;;;4948373;28;20035;-67
2021/09/22 10:18:09;;;;;;;7.53;5.20;;;13.80;74.70;;;;;;4945297;28;20066;-67
2021/09/22 10:20:40;;;;;;;8.63;4.40;;;13.90;74.50;;;;;;4961867;28;20039;-67
2021/09/22 10:23:07;;;;;;;7.47;4.78;;;13.90;75.00;;;;;;4947280;28;20042;-67
2021/09/22 10:25:33;;;;;;;7.90;5.00;;;14.00;78.00;;;;;;4950519;28;20019;-67
2021/09/22 10:27:59;;;;;;;7.13;5.03;;;14.10;74.50;;;;;;4959194;28;20026;-68
2021/09/22 10:30:33;;;;;;;6.93;4.80;;;14.10;74.70;;;;;;4953335;28;20038;-68
2021/09/22 10:32:59;;;;;;;7.18;4.72;;;14.10;72.90;;;;;;4951907;28;20497;-67
2021/09/22 10:35:25;;;;;;;8.25;4.13;;;14.20;74.00;;;;;;4950124;28;20153;-68
2021/09/22 10:37:54;;;;;;;4.88;3.70;;;14.10;74.00;;;;;;4953357;28;20027;-68
2021/09/22 10:40:48;;;;;;;5.97;3.70;;;14.30;78.70;;;;;;4951614;28;20169;-68
2021/09/22 10:43:14;;;;;;;4.38;3.63;;;14.50;75.00;;;;;;4967501;28;20027;-68
2021/09/22 10:45:41;;;;;;;5.20;3.88;;;14.70;74.50;;;;;;4953690;28;20042;-68
2021/09/22 10:48:23;;;;;;;4.90;3.60;;;14.70;75.20;;;;;;4950020;28;20046;-67
2021/09/22 10:50:52;;;;;;;5.28;3.58;;;14.70;74.20;;;;;;4951752;28;20031;-67
2021/09/22 10:53:33;;;;;;;3.78;3.38;;;14.70;72.10;;;;;;4951185;28;20047;-67
2021/09/22 10:56:26;;;;;;;6.25;3.50;;;14.70;72.20;;;;;;4950273;28;20034;-67
2021/09/22 10:58:54;;;;;;;4.38;3.30;;;14.60;70.70;;;;;;4950012;28;20086;-67
2021/09/22 11:01:32;;;;;;;;;;;14.80;75.50;;;;;;4952178;28;20447;-68
2021/09/22 11:04:02;;;;;;;4.05;3.10;;;14.80;69.60;;;;;;4952308;28;19914;-68
2021/09/22 11:06:43;;;;;;;5.65;3.28;;;14.80;70.20;;;;;;4951071;28;20035;-67
2021/09/22 11:09:21;;;;;;;5.32;3.78;;;14.80;71.00;;;;;;4949826;28;20030;-68
2021/09/22 11:11:56;;;;;;;4.70;3.35;;;15.00;74.80;;;;;;4948306;28;20563;-68
2021/09/22 11:14:30;;;;;;;5.88;3.88;;;15.00;72.30;;;;;;4953525;28;20066;-67
2021/09/22 11:17:11;;;;;;;4.70;3.85;;;14.90;69.80;;;;;;4950224;28;20123;-68
2021/09/22 11:19:42;;;;;;;4.78;3.60;;;14.80;71.00;;;;;;4950138;28;20560;-67
2021/09/22 11:22:13;;;;;;;6.55;3.85;;;14.80;68.30;;;;;;4949763;28;20126;-68
2021/09/22 11:24:41;;;;;;;5.38;3.45;;;14.90;72.70;;;;;;4951153;28;20054;-67
2021/09/22 11:27:11;;;;;;;5.83;3.43;;;14.90;69.60;;;;;;4953920;28;20573;-68
2021/09/22 11:30:03;;;;;;;5.20;3.25;;;14.90;72.00;;;;;;4949288;28;20042;-68
2021/09/22 11:32:31;;;;;;;4.93;3.97;;;15.10;71.90;;;;;;4950089;28;20044;-68
2021/09/22 11:35:00;;;;;;;6.88;4.07;;;15.20;73.50;;;;;;4950603;28;20034;-68
2021/09/22 11:37:38;;;;;;;6.05;3.17;;;15.10;71.80;;;;;;4949577;28;20447;-67
2021/09/22 11:40:12;;;;;;;5.75;3.42;;;15.20;70.40;;;;;;4951978;28;20067;-67
2021/09/22 11:42:41;;;;;;;4.90;3.35;;;15.10;72.50;;;;;;4967269;28;20035;-68
2021/09/22 11:45:08;;;;;;;4.95;3.40;;;15.30;71.80;;;;;;4950303;28;20030;-67
2021/09/22 11:47:34;;;;;;;4.93;3.22;;;15.40;71.60;;;;;;4948535;28;20102;-68
2021/09/22 11:49:59;;;;;;;5.10;3.45;;;15.40;69.90;;;;;;4950580;28;20031;-67
2021/09/22 11:52:26;;;;;;;6.22;3.42;;;15.40;70.20;;;;;;4951544;28;20059;-68
2021/09/22 11:54:59;;;;;;;4.72;4.00;;;15.50;70.00;;;;;;4951204;28;20350;-68
2021/09/22 11:57:31;;;;;;;5.43;3.70;;;15.50;69.50;;;;;;4952407;28;20411;-68
2021/09/22 11:59:57;;;;;;;4.30;3.50;;;15.50;69.30;;;;;;4953309;28;20095;-67
2021/09/22 12:02:27;;;;;;;8.70;4.00;;;15.60;70.90;;;;;;4949710;28;20094;-68
2021/09/22 12:04:56;;;;;;;5.85;3.80;;;15.80;69.00;;;;;;4951173;28;20046;-67
2021/09/22 12:07:29;;;;;;;4.25;3.40;;;15.90;68.60;;;;;;4952105;28;20034;-67
2021/09/22 12:10:00;;;;;;;6.35;3.70;;;15.70;67.40;;;;;;4947868;28;20023;-68
2021/09/22 12:12:26;;;;;;;5.45;3.30;;;15.70;65.50;;;;;;4954911;28;20544;-67
2021/09/22 12:14:55;;;;;;;6.25;3.70;;;15.60;68.20;;;;;;4965766;28;20035;-68
2021/09/22 12:17:27;;;;;;;6.40;3.85;;;15.60;68.80;;;;;;4951296;28;20034;-68
2021/09/22 12:19:53;;;;;;;4.65;3.28;;;15.60;69.90;;;;;;4951116;28;20027;-67
2021/09/22 12:22:26;;;;;;;4.97;3.30;;;15.60;67.70;;;;;;4951846;28;20036;-68
2021/09/22 12:24:52;;;;;;;3.65;2.92;;;15.60;67.10;;;;;;4947704;28;20047;-68
2021/09/22 12:27:20;;;;;;;5.20;3.25;;;15.60;67.30;;;;;;4952301;28;20787;-68
2021/09/22 12:30:27;;;;;;;6.05;4.07;;;15.60;67.00;;;;;;4947946;28;20078;-68
2021/09/22 12:33:02;;;;;;;5.72;3.58;;;15.50;65.90;;;;;;4932762;28;20031;-68
2021/09/22 12:35:31;;;;;;;7.65;4.15;;;15.50;67.20;;;;;;4952267;28;20031;-69
2021/09/22 12:37:59;;;;;;;4.85;3.47;;;15.60;68.90;;;;;;4951922;28;20031;-68
2021/09/22 12:40:32;;;;;;;5.90;3.35;;;15.70;69.00;;;;;;4950004;28;20107;-68
2021/09/22 12:43:00;;;;;;;3.97;3.38;;;15.70;70.20;;;;;;4946479;28;20027;-68
2021/09/22 12:45:31;;;;;;;4.72;3.55;;;15.80;69.70;;;;;;4946140;28;20027;-68
2021/09/22 12:48:03;;;;;;;6.53;3.05;;;15.80;68.30;;;;;;4946558;28;20441;-68
2021/09/22 12:50:40;;;;;;;6.13;3.28;;;15.80;68.40;;;;;;4949089;28;20028;-68
2021/09/22 12:53:17;;;;;;;4.63;3.45;;;15.80;68.20;;;;;;4950616;28;20031;-68